createdAt,value
2022-10-14T00:03:51.618Z,4.33
2022-10-14T00:08:36.804Z,3.63
2022-10-14T00:13:20.249Z,4.53
2022-10-14T00:18:03.712Z,4.20
2022-10-14T00:22:47.173Z,5.00
2022-10-14T00:27:31.970Z,3.47
2022-10-14T00:32:15.762Z,5.03
2022-10-14T00:36:59.335Z,5.77
2022-10-14T00:41:43.165Z,5.70
2022-10-14T00:46:30.524Z,3.13
2022-10-14T00:51:14.609Z,2.60
2022-10-14T00:55:58.017Z,4.47
2022-10-14T01:00:41.984Z,3.97
2022-10-14T01:05:35.298Z,4.00
2022-10-14T01:10:31.206Z,3.77
2022-10-14T01:15:23.783Z,3.17
2022-10-14T01:20:27.895Z,2.50
2022-10-14T01:25:20.897Z,4.30
2022-10-14T01:30:12.265Z,5.37
2022-10-14T01:35:02.779Z,3.40
2022-10-14T01:39:49.725Z,2.50
2022-10-14T01:44:36.292Z,2.50
2022-10-14T01:49:28.383Z,2.53
2022-10-14T01:54:16.337Z,2.83
2022-10-14T01:59:01.056Z,4.13
2022-10-14T02:03:46.652Z,4.80
2022-10-14T02:08:42.817Z,5.00
2022-10-14T02:13:38.773Z,7.17
2022-10-14T02:18:30.390Z,5.03
2022-10-14T02:23:17.232Z,5.47
2022-10-14T02:28:03.050Z,3.57
2022-10-14T02:32:47.747Z,3.67
2022-10-14T02:37:32.588Z,5.47
2022-10-14T02:42:16.170Z,2.40
2022-10-14T02:47:01.054Z,3.67
2022-10-14T02:51:44.530Z,3.60
2022-10-14T02:56:27.958Z,2.77
2022-10-14T03:01:11.850Z,2.80
2022-10-14T03:05:56.798Z,2.30
2022-10-14T03:10:40.295Z,1.60
2022-10-14T03:15:24.025Z,2.37
2022-10-14T03:20:08.578Z,2.57
2022-10-14T03:24:53.417Z,4.23
2022-10-14T03:29:37.032Z,1.33
2022-10-14T03:34:20.589Z,2.77
2022-10-14T03:39:04.172Z,2.30
2022-10-14T03:43:49.383Z,4.50
2022-10-14T03:48:32.855Z,2.67
2022-10-14T03:53:16.384Z,3.53
2022-10-14T03:57:59.894Z,7.23
2022-10-14T04:02:44.904Z,4.57
2022-10-14T04:07:28.303Z,2.47
2022-10-14T04:12:11.815Z,3.43
2022-10-14T04:16:55.232Z,10.83
2022-10-14T04:21:40.037Z,6.17
2022-10-14T04:26:23.479Z,3.30
2022-10-14T04:31:07.173Z,7.50
2022-10-14T04:35:50.637Z,2.90
2022-10-14T04:40:35.526Z,5.77
2022-10-14T04:45:19.027Z,1.87
2022-10-14T04:50:02.625Z,2.10
2022-10-14T04:54:52.258Z,1.37
2022-10-14T04:59:37.193Z,2.50
2022-10-14T05:04:20.792Z,3.27
2022-10-14T05:09:04.645Z,1.07
2022-10-14T05:13:48.102Z,2.30
2022-10-14T05:18:35.105Z,1.90
2022-10-14T05:23:20.665Z,1.20
2022-10-14T05:28:04.408Z,4.17
2022-10-14T05:32:47.901Z,5.53
2022-10-14T05:37:32.953Z,3.27
2022-10-14T05:42:16.399Z,4.60
2022-10-14T05:47:02.276Z,6.70
2022-10-14T05:51:45.804Z,4.57
2022-10-14T05:56:30.660Z,5.20
2022-10-14T06:01:14.136Z,2.27
2022-10-14T06:05:57.965Z,2.50
2022-10-14T06:10:41.405Z,1.50
2022-10-14T06:15:26.243Z,4.00
2022-10-14T06:20:10.700Z,1.57
2022-10-14T06:24:54.206Z,2.40
2022-10-14T06:29:38.844Z,1.90
2022-10-14T06:34:24.940Z,2.43
2022-10-14T06:39:08.567Z,1.43
2022-10-14T06:43:52.053Z,1.13
2022-10-14T06:48:35.575Z,2.67
2022-10-14T06:53:20.869Z,1.90
2022-10-14T06:58:04.449Z,1.27
2022-10-14T07:02:48.052Z,0.97
2022-10-14T07:07:32.538Z,2.53
2022-10-14T07:12:17.851Z,1.50
2022-10-14T07:17:01.458Z,3.20
2022-10-14T07:21:46.734Z,2.53
2022-10-14T07:26:32.271Z,3.20
2022-10-14T07:31:17.421Z,1.70
2022-10-14T07:36:03.312Z,2.77
2022-10-14T07:40:46.892Z,3.23
2022-10-14T07:45:35.418Z,1.13
2022-10-14T07:50:20.972Z,5.57
2022-10-14T07:55:05.110Z,2.37
2022-10-14T07:59:48.803Z,3.60
2022-10-14T08:04:32.573Z,1.50
2022-10-14T08:09:18.475Z,1.30
2022-10-14T08:14:02.407Z,9.00
2022-10-14T08:18:47.312Z,4.27
2022-10-14T08:23:33.224Z,4.00
2022-10-14T08:28:18.144Z,2.80
2022-10-14T08:33:01.618Z,2.97
2022-10-14T08:37:45.053Z,2.17
2022-10-14T08:42:36.958Z,1.93
2022-10-14T08:47:27.094Z,5.23
2022-10-14T08:52:14.127Z,2.20
2022-10-14T08:56:58.042Z,1.50
2022-10-14T09:01:50.795Z,3.47
2022-10-14T09:06:37.494Z,3.23
2022-10-14T09:11:22.924Z,5.40
2022-10-14T09:16:11.237Z,5.90
2022-10-14T09:20:56.590Z,4.30
2022-10-14T09:25:46.701Z,6.13
2022-10-14T09:30:34.920Z,6.63
2022-10-14T09:35:24.554Z,7.53
2022-10-14T09:40:20.080Z,4.23
2022-10-14T09:45:26.854Z,5.60
2022-10-14T09:50:36.341Z,4.10
2022-10-14T09:55:48.060Z,5.30
2022-10-14T10:00:35.954Z,8.70
2022-10-14T10:05:27.409Z,5.77
2022-10-14T10:10:20.968Z,6.07
2022-10-14T10:15:06.737Z,9.13
2022-10-14T10:19:54.323Z,6.13
2022-10-14T10:24:37.787Z,5.87
2022-10-14T10:29:28.398Z,9.07
2022-10-14T10:34:32.771Z,5.20
2022-10-14T10:39:25.929Z,8.60
2022-10-14T10:44:25.842Z,6.67
2022-10-14T10:49:22.888Z,7.03
2022-10-14T10:54:18.083Z,4.97
2022-10-14T10:59:30.557Z,6.13
2022-10-14T11:04:31.223Z,6.13
2022-10-14T11:09:37.080Z,8.90
2022-10-14T11:14:50.703Z,6.47
2022-10-14T11:19:40.784Z,8.17
2022-10-14T11:24:29.970Z,22.57
2022-10-14T11:29:28.934Z,7.20
2022-10-14T11:34:35.009Z,4.30
2022-10-14T11:39:40.502Z,6.63
2022-10-14T11:44:30.075Z,7.27
2022-10-14T11:49:20.512Z,4.10
2022-10-14T11:54:12.821Z,5.27
2022-10-14T11:58:58.729Z,6.95
2022-10-14T12:03:52.856Z,5.72
2022-10-14T12:08:46.269Z,5.65
2022-10-14T12:13:35.949Z,3.73
2022-10-14T12:18:20.668Z,3.67
2022-10-14T12:23:06.663Z,3.55
2022-10-14T12:27:52.410Z,5.72
2022-10-14T12:32:57.376Z,7.75
2022-10-14T12:37:52.270Z,4.78
2022-10-14T12:42:38.140Z,4.40
2022-10-14T12:47:24.184Z,8.67
2022-10-14T12:52:10.616Z,5.53
2022-10-14T12:57:00.060Z,3.53
2022-10-14T13:01:45.516Z,5.30
2022-10-14T13:06:35.634Z,6.57
2022-10-14T13:11:28.984Z,4.30
2022-10-14T13:16:32.888Z,8.87
2022-10-14T13:21:32.482Z,7.30
2022-10-14T13:26:25.635Z,7.27
2022-10-14T13:31:14.610Z,7.83
2022-10-14T13:36:09.344Z,6.97
2022-10-14T13:40:55.292Z,9.10
2022-10-14T13:45:45.606Z,5.93
2022-10-14T13:50:36.727Z,5.93
2022-10-14T13:55:23.873Z,6.73
2022-10-14T14:00:44.212Z,8.53
2022-10-14T14:05:33.418Z,8.07
2022-10-14T14:10:20.944Z,7.40
2022-10-14T14:15:05.332Z,8.00
2022-10-14T14:19:49.185Z,5.80
2022-10-14T14:24:35.080Z,8.27
2022-10-14T14:29:20.462Z,8.03
2022-10-14T14:34:03.969Z,10.87
2022-10-14T14:38:55.960Z,8.03
2022-10-14T14:43:47.372Z,8.90
2022-10-14T14:48:38.644Z,12.60
2022-10-14T14:53:24.084Z,11.83
2022-10-14T14:58:21.517Z,12.27
2022-10-14T15:03:06.708Z,11.97
2022-10-14T15:07:51.333Z,9.77
2022-10-14T15:12:39.844Z,13.63
2022-10-14T15:17:29.597Z,11.63
2022-10-14T15:22:31.468Z,11.43
2022-10-14T15:27:46.614Z,13.07
2022-10-14T15:32:30.657Z,9.67
2022-10-14T15:37:15.840Z,8.53
2022-10-14T15:41:59.382Z,9.37
2022-10-14T15:47:02.925Z,9.53
2022-10-14T15:51:46.393Z,5.63
2022-10-14T15:56:31.778Z,4.50
2022-10-14T16:01:19.962Z,6.20
2022-10-14T16:06:03.498Z,9.40
2022-10-14T16:10:48.936Z,8.60
2022-10-14T16:15:37.269Z,8.50
2022-10-14T16:20:21.590Z,9.37
2022-10-14T16:25:05.624Z,7.03
2022-10-14T16:29:49.179Z,8.47
2022-10-14T16:34:34.071Z,11.13
2022-10-14T16:39:18.426Z,15.27
2022-10-14T16:44:01.947Z,16.93
2022-10-14T16:48:45.508Z,12.47
2022-10-14T16:53:45.247Z,14.23
2022-10-14T16:58:29.849Z,13.67
2022-10-14T17:03:13.430Z,10.93
2022-10-14T17:07:57.149Z,9.43
2022-10-14T17:12:42.490Z,8.40
2022-10-14T17:17:26.326Z,6.33
2022-10-14T17:22:10.176Z,10.67
2022-10-14T17:26:54.173Z,12.80
2022-10-14T17:31:39.271Z,11.23
2022-10-14T17:36:24.972Z,20.17
2022-10-14T17:41:11.097Z,13.10
2022-10-14T17:46:02.032Z,21.00
2022-10-14T17:50:51.126Z,14.37
2022-10-14T17:55:37.350Z,10.90
2022-10-14T18:00:21.955Z,11.97
2022-10-14T18:05:07.909Z,16.17
2022-10-14T18:09:53.834Z,10.97
2022-10-14T18:14:38.649Z,8.40
2022-10-14T18:19:23.400Z,11.77
2022-10-14T18:24:09.819Z,14.90
2022-10-14T18:28:57.756Z,10.63
2022-10-14T18:33:43.380Z,13.03
2022-10-14T18:38:27.284Z,11.47
2022-10-14T18:43:12.574Z,11.67
2022-10-14T18:48:01.092Z,23.47
2022-10-14T18:52:45.673Z,15.93
2022-10-14T18:57:30.963Z,10.17
2022-10-14T19:02:17.106Z,7.90
2022-10-14T19:07:02.765Z,11.57
2022-10-14T19:11:48.784Z,6.13
2022-10-14T19:16:34.522Z,8.10
2022-10-14T19:21:22.890Z,7.53
2022-10-14T19:26:10.140Z,8.57
2022-10-14T19:30:54.632Z,10.83
2022-10-14T19:35:40.756Z,6.23
2022-10-14T19:40:25.312Z,7.83
2022-10-14T19:45:12.295Z,11.77
2022-10-14T19:49:56.656Z,8.67
2022-10-14T19:54:41.112Z,12.77
2022-10-14T19:59:24.987Z,5.07
2022-10-14T20:04:10.307Z,4.97
2022-10-14T20:08:54.009Z,4.17
2022-10-14T20:13:38.878Z,3.33
2022-10-14T20:18:22.607Z,3.20
2022-10-14T20:23:08.076Z,3.00
2022-10-14T20:27:51.961Z,2.80
2022-10-14T20:32:35.445Z,2.50
2022-10-14T20:37:23.010Z,3.00
2022-10-14T20:42:10.914Z,3.83
2022-10-14T20:46:54.609Z,4.07
2022-10-14T20:51:38.301Z,8.47
2022-10-14T20:56:21.902Z,5.83
2022-10-14T21:01:08.792Z,4.50
2022-10-14T21:05:52.315Z,2.60
2022-10-14T21:10:36.163Z,2.90
2022-10-14T21:15:20.383Z,2.73
2022-10-14T21:20:06.873Z,4.57
2022-10-14T21:24:51.142Z,4.17
2022-10-14T21:29:35.258Z,4.83
2022-10-14T21:34:18.845Z,6.47
2022-10-14T21:39:07.560Z,4.67
2022-10-14T21:43:52.042Z,2.57
2022-10-14T21:48:35.871Z,4.47
2022-10-14T21:53:19.433Z,2.83
2022-10-14T21:58:04.317Z,2.93
2022-10-14T22:02:47.783Z,2.80
2022-10-14T22:07:31.325Z,4.17
2022-10-14T22:12:15.080Z,5.10
2022-10-14T22:16:59.975Z,2.87
2022-10-14T22:21:45.162Z,2.27
2022-10-14T22:26:30.605Z,3.27
2022-10-14T22:31:16.144Z,1.80
2022-10-14T22:36:09.497Z,2.97
2022-10-14T22:40:53.021Z,5.17
2022-10-14T22:45:36.530Z,2.80
2022-10-14T22:50:20.019Z,3.63
2022-10-14T22:55:05.197Z,1.80
2022-10-14T22:59:48.775Z,4.93
2022-10-14T23:04:32.313Z,2.93
2022-10-14T23:09:16.135Z,1.60
2022-10-14T23:14:04.411Z,3.17
2022-10-14T23:18:51.231Z,2.23
2022-10-14T23:23:34.790Z,2.40
2022-10-14T23:28:18.397Z,1.03
2022-10-14T23:33:03.588Z,1.30
2022-10-14T23:37:47.184Z,3.80
2022-10-14T23:42:30.845Z,1.17
2022-10-14T23:47:14.395Z,2.47
2022-10-14T23:51:59.473Z,1.53
2022-10-14T23:56:42.944Z,1.97
